• Join FlightAware (Why Join?)
  • Login
  • US Flag 
06:43AM EDT


 

Airport Tracker/Info


-or-


 

Live Flight TrackerFlight Track Log ✈ SWA2139 ✈ 20-Dec-2013 ✈ KIAD - KMDW

Flight Track Log - Related Links

Times and Time Zones

All times are in EST time to prevent confusion due to time zone crossing. See the SWA2139 flight status page for this flight to view local times or setup timezone preferences in your user account.

Time Position Orientation Groundspeed Altitude Reporting Facility
EST Latitude Longitude Course Direction KTS MPH feet Rate Location/Type
07:02AM 38.9333 -77.5000 258° West 153 176 1,800  Level Potomac TRACON
07:04AM 38.9083 -77.6483 258° West 212 244 6,900 2,700 Climbing Washington Center
07:05AM 38.8944 -77.7228 257° West 231 266 10,000 2,820 Climbing Washington Center
07:06AM 38.9092 -77.8297 280° West 263 303 12,600 2,520 Climbing Washington Center
07:07AM 38.9236 -77.9478 279° West 313 360 15,200 2,760 Climbing Washington Center
07:08AM 38.9400 -78.0711 280° West 337 388 18,100 2,880 Climbing Washington Center
07:09AM 38.9581 -78.1997 280° West 359 413 20,900 2,580 Climbing Washington Center
07:10AM 38.9675 -78.3336 275° West 371 427 23,400 2,280 Climbing Washington Center
07:11AM 38.9769 -78.4700 275° West 377 434 25,500 1,980 Climbing Washington Center
07:12AM 38.9861 -78.6092 275° West 382 440 27,400 1,740 Climbing Washington Center
07:13AM 38.9950 -78.7486 275° West 394 453 29,100 1,860 Climbing Washington Center
07:14AM 39.0039 -78.8878 275° West 400 460 31,100 1,920 Climbing Washington Center
07:15AM 39.0106 -79.0217 274° West 393 452 32,900 1,860 Climbing Washington Center
07:16AM 39.0189 -79.1583 275° West 387 445 34,800 2,040 Climbing Washington Center
07:17AM 39.0278 -79.2844 275° West 381 438 37,000 1,500 Climbing Washington Center
07:18AM 39.0361 -79.4106 275° West 367 422 37,900 480 Climbing Washington Center
07:19AM 39.0447 -79.5339 275° West 362 417 38,000  Climbing Washington Center
07:20AM 39.0550 -79.6628 276° West 362 417 38,000  Level Washington Center
07:21AM 39.0611 -79.7889 274° West 362 417 38,000  Level Washington Center
07:22AM 39.0692 -79.9150 275° West 362 417 38,000  Level Washington Center
07:23AM 39.0772 -80.0383 275° West 362 417 38,000  Level Washington Center
07:24AM 39.0831 -80.1978 273° West 353 406 38,000  Level Indianapolis Center
07:25AM 39.0903 -80.3222 274° West 350 403 38,000  Level Indianapolis Center
07:26AM 39.0967 -80.4489 274° West 354 407 38,000  Level Indianapolis Center
07:27AM 39.1175 -80.5708 282° West 358 412 38,000  Level Indianapolis Center
07:28AM 39.1775 -80.7094 299° West 370 426 38,000  Level Indianapolis Center
07:29AM 39.2269 -80.8264 299° West 373 429 38,000  Level Indianapolis Center
07:30AM 39.2772 -80.9436 299° West 374 430 38,000  Level Indianapolis Center
07:31AM 39.3267 -81.0603 299° West 372 428 38,000  Level Indianapolis Center
07:32AM 39.3772 -81.1783 299° West 377 434 38,000  Level Indianapolis Center
07:33AM 39.4269 -81.2958 299° West 375 432 38,000  Level Indianapolis Center
07:34AM 39.4767 -81.4131 299° West 374 430 38,000  Level Indianapolis Center
07:35AM 39.5267 -81.5308 299° West 375 432 38,000  Level Indianapolis Center
07:36AM 39.5761 -81.6475 299° West 372 428 38,000  Level Indianapolis Center
07:37AM 39.6347 -81.7892 298° West 372 428 38,000  Level Indianapolis Center
07:38AM 39.6850 -81.9061 299° West 372 428 38,000  Level Indianapolis Center
07:39AM 39.7278 -82.0125 298° West 371 427 38,000  Level Indianapolis Center
07:40AM 39.7769 -82.1306 298° West 373 429 38,000  Level Indianapolis Center
07:41AM 39.8358 -82.2731 298° West 373 429 38,000  Level Indianapolis Center
07:42AM 39.8842 -82.3908 298° West 372 428 38,000  Level Indianapolis Center
07:43AM 39.9325 -82.5081 298° West 370 426 38,000  Level Indianapolis Center
07:44AM 39.9814 -82.6278 298° West 373 429 38,000  Level Indianapolis Center
07:45AM 40.0294 -82.7464 298° West 374 430 38,000  Level Indianapolis Center
07:46AM 40.0764 -82.8647 297° West 370 426 38,000  Level Indianapolis Center
07:47AM 40.1253 -82.9836 298° West 374 430 38,000  Level Indianapolis Center
07:48AM 40.1822 -83.1253 298° West 371 427 38,000  Level Indianapolis Center
07:49AM 40.2297 -83.2447 298° West 373 429 38,000  Level Indianapolis Center
07:50AM 40.2769 -83.3647 297° West 374 430 38,000  Level Indianapolis Center
07:52AM 40.3247 -83.4839 298° West 374 430 38,000  Level Indianapolis Center
07:53AM 40.3728 -83.6058 297° West 377 434 38,000  Level Indianapolis Center
07:54AM 40.4206 -83.7272 297° West 378 435 38,000  Level Indianapolis Center
07:55AM 40.4689 -83.8506 297° West 382 440 38,000  Level Indianapolis Center
07:56AM 40.5267 -84.0000 297° West 384 442 38,000  Level Indianapolis Center
07:57AM 40.5750 -84.1236 297° West 384 442 38,000 -240 Level Indianapolis Center
07:58AM 40.6231 -84.2461 297° West 379 436 37,600 -1,620 Descending Indianapolis Center
07:59AM 40.6681 -84.3672 296° West 371 427 34,800 -2,760 Descending Indianapolis Center
08:00AM 40.7158 -84.4875 298° West 372 428 32,000 -2,400 Descending Indianapolis Center
08:01AM 40.7611 -84.6086 296° West 371 427 30,000 -1,200 Descending Indianapolis Center
08:01AM 40.7919 -84.6928 296° West 366 421 30,000  Level Chicago Center
08:02AM 40.8406 -84.8192 297° West 378 435 30,000  Level Chicago Center
08:03AM 40.8903 -84.9506 297° West 394 453 30,000  Level Chicago Center
08:04AM 40.9669 -85.0986 304° West 408 470 30,000  Level Chicago Center
08:06AM 41.0403 -85.2169 309° West 414 476 30,000  Level Chicago Center
08:07AM 41.1122 -85.3381 308° West 417 480 30,000 -1,440 Level Chicago Center
08:08AM 41.1847 -85.4575 309° West 415 478 27,100 -2,820 Descending Chicago Center
08:09AM 41.2561 -85.5767 309° West 411 473 24,300 -1,860 Descending Chicago Center
08:10AM 41.3239 -85.6883 309° West 388 447 23,400 -1,380 Descending Chicago Center
08:11AM 41.3842 -85.7903 308° West 355 409 21,500 -1,920 Descending Chicago Center
08:12AM 41.4442 -85.8917 308° West 347 399 19,500 -2,040 Descending Chicago Center
08:13AM 41.5053 -85.9956 308° West 352 405 17,400 -1,980 Descending Chicago Center
08:14AM 41.5233 -86.1111 282° West 333 383 15,500 -2,100 Descending Chicago Center
08:15AM 41.5239 -86.2494 270° West 314 361 13,200 -1,980 Descending Chicago Center
08:16AM 41.5225 -86.3633 269° West 310 357 11,500 -1,320 Descending Chicago Center
08:17AM 41.5217 -86.4719 269° West 296 341 10,600 -780 Descending Chicago Center
08:18AM 41.5214 -86.5761 270° West 281 323 10,000 -300 Descending Chicago Center
08:19AM 41.5208 -86.6786 270° West 281 323 10,000  Level Chicago Center
08:20AM 41.5197 -86.7808 269° West 277 319 10,000  Level Chicago Center
08:21AM 41.5192 -86.8686 270° West 248 285 10,000 -660 Level Chicago Center
08:22AM 41.5178 -86.9706 269° West 232 267 8,700 -1,320 Descending Chicago Center
08:23AM 41.5167 -87.0628 269° West 243 280 7,300 -1,380 Descending Chicago Center
08:24AM 41.5192 -87.1539 272° West 247 284 5,900 -1,200 Descending Chicago Center
08:25AM 41.5456 -87.2403 292° West 252 290 4,900 -900 Descending Chicago Center
08:26AM 41.5714 -87.3272 292° West 252 290 4,100 -480 Descending Chicago Center
08:27AM 41.5772 -87.4111 275° West 243 280 4,000 -60 Descending Chicago Center
08:28AM 41.5736 -87.4972 267° West 237 273 4,000  Level Chicago Center
08:29AM 41.5703 -87.6011 268° West 236 272 4,000 -300 Level Chicago Center
08:30AM 41.5683 -87.6867 268° West 233 268 3,400 -540 Descending Chicago Center
08:31AM 41.5667 -87.7750 269° West 236 272 3,000 -240 Descending Chicago Center
08:32AM 41.5808 -87.8533 284° West 233 268 3,000  Level Chicago Center
08:33AM 41.6186 -87.9114 311° West 218 251 3,000 -300 Level Chicago Center
08:34AM 41.6733 -87.8936 14° North 220 253 2,500 -300 Descending Chicago Center
08:35AM 41.7172 -87.8383 43° Northeast 195 224 2,500 -420 Level Chicago Center
08:36AM 41.7472 -87.8006 43° Northeast 170 196 1,700 -780 Descending Chicago Center
08:37AM 41.7697 -87.7711 44° Northeast 136 157 1,000 -720 Descending Chicago Center
08:39AM 41.7833 -87.7500 340° North  Level FlightAware Approximate